Silverthorne, CO (80497)

9:08 AM MDT on September 19, 2014 (GMT -0600)
Blue River Valley Ranch Lakes | Change Station
CLOSE
Current Station
Personal Weather Station
Location: Summit County, CO
Elevation: 8694 ft
Nearby Weather Stations

Elev 8694 ft 39.65 °N, 106.07 °W | Updated 6 seconds ago

Clear
Clear
56.5 °F
Feels Like 56.5 °F
N
5.0
Wind Variable Wind from East
Gusts 6.0 mph

Today
High -- | Low -- °F
--% Chance of Precip.
Yesterday
High -- | Low -- °F
Precip. -- in
6:49 AM 7:06 PM
Waning Crescent, 18% visible
Pressure 29.86 in
Visibility 10.0 miles
Clouds Clear
Dew Point 37 °F
Humidity 48%
Rainfall 0.00 in
Snow Depth 1 in , 0 in , 0 in
UV 2 out of 12
Pollen 7.50 out of 12
Air Quality Not available.
Flu Activity Not available.
METAR KLXV 191453Z AUTO 00000KT 10SM CLR 11/M01 A3037 RMK AO2 SLP111 T01111006 53006

More Conditions Fewer Conditions

Pressure 29.86 in
Visibility 10.0 miles
Clouds Clear
Dew Point 37 °F
Humidity 48%
Rainfall 0.00 in
Snow Depth 1 in , 0 in , 0 in
UV 2 out of 12
Pollen 7.50 out of 12
Air Quality Not available.
Flu Activity Not available.
METAR KLXV 191453Z AUTO 00000KT 10SM CLR 11/M01 A3037 RMK AO2 SLP111 T01111006 53006

More Conditions Fewer Conditions

10-Day Weather Forecast

Almanac

Astronomy

Sep. 19, 2014 Rise Set
Actual Time 6:49 AM MDT 7:06 PM MDT
Civil Twilight 6:22 AM MDT 7:33 PM MDT
Nautical Twilight 5:50 AM MDT 8:04 PM MDT
Astronomical Twilight 5:18 AM MDT 8:36 PM MDT
Moon 2:37 AM MDT 4:36 PM MDT
Length of Visible Light 13h 10m
Length of Day
12h 17m
Tomorrow will be 2m 33s shorter.
Waning Crescent, 18% of the Moon is Illuminated
Today
Waning Crescent
Sep 24
New
Oct 1
First Quarter
Oct 8
Full
Oct 15
Last Quarter

Today's Extremes

State Highs State Lows

Community

WunderPhotos

Upload Photos

1,754,633 photos uploaded!

WunderBlogs® & News

By Dr. Jeff Masters
Director of Meteorology, Weather Underground
By Kari Strenfel
Meteorologist, Weather Underground
By Christopher C. Burt
Weather Historian, Weather Underground
September 19, 2014
September 19, 2014
September 19, 2014

Nearby

Snow Depth

Station Depth Elevation
Kiln 1 in 9600 ft
South Colony 0 in 10800 ft
Hoosier Pass 0 in 11400 ft
Vallecito 1 in 10880 ft
Culebra #2 0 in 10500 ft

Earthquake Activity

City Distance Mag. Time & Date
No recent earthquake activity has been reported nearby.
Minimum magnitude displayed is 2.5.

Coastal Water Temperatures

Place Temperature
No Stations Reporting

Nearby Weather Stations